Time;durP1;ratioP1;P1;durP2;ratioP2;P2;SDS_P1;SDS_P2;PMS_P1;PMS_P2;Temp;Humidity;BMP_temperature;BMP_pressure;BME280_temperature;BME280_humidity;BME280_pressure;Samples;Min_cycle;Max_cycle;Signal;HPM_P1;HPM_P2
2023/03/04 00:01:15;;;;;;;;;;;;;;;21.58;26.65;97920.78;5063410;28;980;-79
2023/03/04 00:03:40;;;;;;;;;;;;;;;21.64;26.55;97915.38;5097437;28;1120;-79
2023/03/04 00:06:06;;;;;;;;;;;;;;;21.96;26.21;97908.78;5080409;28;939;-78
2023/03/04 00:08:32;;;;;;;;;;;;;;;22.26;25.93;97921.66;5096952;28;1190;-79
2023/03/04 00:10:57;;;;;;;;;;;;;;;21.95;25.97;97915.69;5097490;28;930;-79
2023/03/04 00:13:23;;;;;;;;;;;;;;;21.73;26.73;97921.19;5097341;28;1021;-79
2023/03/04 00:15:49;;;;;;;;;;;;;;;21.53;26.91;97917.69;5114640;28;1038;-79
2023/03/04 00:18:15;;;;;;;;;;;;;;;21.93;26.67;97923.06;5097013;28;937;-78
2023/03/04 00:20:40;;;;;;;;;;;;;;;22.26;25.89;97927.34;5080390;28;2000;-79
2023/03/04 00:23:06;;;;;;;;;;;;;;;22.09;26.46;97926.59;5097178;28;1062;-79
2023/03/04 00:25:32;;;;;;;;;;;;;;;21.79;26.39;97925.03;5097330;28;946;-78
2023/03/04 00:27:58;;;;;;;;;;;;;;;21.71;26.75;97923.69;5062757;28;1166;-79
2023/03/04 00:30:23;;;;;;;;;;;;;;;21.53;27.25;97929.03;5057935;28;1349;-79
2023/03/04 00:32:49;;;;;;;;;;;;;;;21.76;26.79;97933.63;5074927;28;1263;-79
2023/03/04 00:35:15;;;;;;;;;;;;;;;22.11;26.21;97923.34;5058227;28;1129;-78
2023/03/04 00:37:40;;;;;;;;;;;;;;;22.05;26.29;97925.91;5074410;28;887;-79
2023/03/04 00:40:06;;;;;;;;;;;;;;;21.84;26.41;97927.31;5041103;28;1909;-79
2023/03/04 00:42:32;;;;;;;;;;;;;;;21.75;26.73;97930.00;5058204;28;1477;-78
2023/03/04 00:44:57;;;;;;;;;;;;;;;21.57;27.00;97930.53;5074542;28;1064;-79
2023/03/04 00:47:23;;;;;;;;;;;;;;;21.83;27.05;97927.78;5057845;28;1113;-78
2023/03/04 00:49:48;;;;;;;;;;;;;;;21.97;26.41;97920.91;5041827;28;1121;-79
2023/03/04 00:52:14;;;;;;;;;;;;;;;22.14;26.32;97919.63;5074364;28;1312;-79
2023/03/04 00:54:39;;;;;;;;;;;;;;;21.92;26.40;97924.31;5036073;28;1084;-79
2023/03/04 00:57:05;;;;;;;;;;;;;;;21.28;26.47;97813.63;5036550;28;1060;-78
2023/03/04 00:59:31;;;;;;;;;;;;;;;21.79;26.63;97913.72;5036464;28;1883;-79
2023/03/04 01:01:56;;;;;;;;;;;;;;;21.91;26.90;97915.00;5016281;28;1036;-79
2023/03/04 01:04:22;;;;;;;;;;;;;;;22.14;26.29;97910.31;5019636;28;908;-79
2023/03/04 01:06:48;;;;;;;;;;;;;;;22.09;26.27;97900.31;5003882;28;1288;-79
2023/03/04 01:09:13;;;;;;;;;;;;;;;21.85;26.45;97911.91;5020602;28;955;-79
2023/03/04 01:11:39;;;;;;;;;;;;;;;21.90;26.52;97906.94;5004141;28;1234;-79
2023/03/04 01:14:04;;;;;;;;;;;;;;;21.68;26.75;97906.78;5036717;28;1244;-79
2023/03/04 01:16:31;;;;;;;;;;;;;;;22.03;26.68;97911.41;5036764;28;987;-79
2023/03/04 01:18:56;;;;;;;;;;;;;;;22.03;26.46;97911.41;5020180;28;1975;-79
2023/03/04 01:21:22;;;;;;;;;;;;;;;22.19;26.39;97913.38;5036858;28;1202;-79
2023/03/04 01:23:48;;;;;;;;;;;;;;;21.78;26.72;97900.81;5020121;28;941;-79
2023/03/04 01:26:13;;;;;;;;;;;;;;;21.87;26.56;97896.53;5023606;28;1241;-79
2023/03/04 01:28:39;;;;;;;;;;;;;;;21.66;27.07;97897.91;5039985;28;1227;-78
2023/03/04 01:31:05;;;;;;;;;;;;;;;22.16;26.36;97891.63;5040320;28;1103;-79
2023/03/04 01:33:31;;;;;;;;;;;;;;;22.28;26.05;97890.06;5070019;28;914;-79
2023/03/04 01:35:57;;;;;;;;;;;;;;;21.90;26.64;97889.94;5043101;28;1118;-79
2023/03/04 01:38:24;;;;;;;;;;;;;;;21.73;26.93;97892.06;5043311;28;1102;-79
2023/03/04 01:40:50;;;;;;;;;;;;;;;21.71;26.77;97889.69;5059491;28;1977;-79
2023/03/04 01:43:20;;;;;;;;;;;;;;;21.77;26.88;97893.56;5059784;28;868;-79
2023/03/04 01:45:47;;;;;;;;;;;;;;;22.15;26.52;97889.25;4999898;28;1270;-79
2023/03/04 01:48:13;;;;;;;;;;;;;;;22.22;26.23;97886.97;5000058;28;960;-79
2023/03/04 01:50:38;;;;;;;;;;;;;;;22.04;26.22;97878.19;5000087;28;899;-79
2023/03/04 01:53:05;;;;;;;;;;;;;;;21.90;26.48;97878.63;4983900;28;1316;-79
2023/03/04 01:55:30;;;;;;;;;;;;;;;21.50;27.38;97873.28;5000076;28;1068;-79
2023/03/04 01:57:56;;;;;;;;;;;;;;;21.93;26.51;97864.38;5000167;28;1218;-79
2023/03/04 02:00:22;;;;;;;;;;;;;;;22.07;26.31;97865.94;4999970;28;1914;-79
2023/03/04 02:02:48;;;;;;;;;;;;;;;22.22;26.27;97863.50;5016147;28;948;-79
2023/03/04 02:05:15;;;;;;;;;;;;;;;21.80;26.59;97864.31;4983796;28;1120;-79
2023/03/04 02:07:41;;;;;;;;;;;;;;;21.81;26.54;97863.09;5000030;28;1251;-79
2023/03/04 02:10:08;;;;;;;;;;;;;;;21.84;26.54;97865.00;4945108;28;1241;-79
2023/03/04 02:12:33;;;;;;;;;;;;;;;21.88;26.59;97864.13;4925622;29;1181;-79
2023/03/04 02:14:59;;;;;;;;;;;;;;;22.22;26.35;97872.00;4956532;28;891;-79
2023/03/04 02:17:25;;;;;;;;;;;;;;;21.96;26.45;97866.28;4961086;28;1049;-79
2023/03/04 02:20:00;;;;;;;;;;;;;;;21.91;26.53;97863.22;4976577;28;1968;-79
2023/03/04 02:22:26;;;;;;;;;;;;;;;21.58;26.88;97863.38;4976996;28;1283;-79
2023/03/04 02:24:51;;;;;;;;;;;;;;;21.84;26.81;97869.88;4976756;28;1138;-79
2023/03/04 02:27:17;;;;;;;;;;;;;;;22.08;26.33;97864.72;4976821;28;1330;-79
2023/03/04 02:29:43;;;;;;;;;;;;;;;22.15;26.60;97855.22;4976807;28;1116;-79
2023/03/04 02:32:09;;;;;;;;;;;;;;;21.96;26.38;97862.66;4976670;28;1179;-79
2023/03/04 02:34:35;;;;;;;;;;;;;;;21.78;26.71;97861.16;4960433;28;1286;-79
2023/03/04 02:37:01;;;;;;;;;;;;;;;21.70;26.78;97854.09;4976718;28;899;-79
2023/03/04 02:39:32;;;;;;;;;;;;;;;21.87;26.47;97856.88;4960455;28;1977;-79
2023/03/04 02:41:58;;;;;;;;;;;;;;;21.86;26.88;97867.38;5010199;28;1131;-79
2023/03/04 02:44:27;;;;;;;;;;;;;;;22.17;26.22;97864.84;5002964;28;1225;-79
2023/03/04 02:46:53;;;;;;;;;;;;;;;21.94;26.44;97859.47;5002856;28;1203;-79
2023/03/04 02:49:19;;;;;;;;;;;;;;;21.77;26.73;97864.44;5029204;28;982;-79
2023/03/04 02:51:44;;;;;;;;;;;;;;;21.64;27.04;97872.88;5074717;28;1020;-78
2023/03/04 02:54:16;;;;;;;;;;;;;;;21.78;26.90;97869.66;5058352;28;930;-79
2023/03/04 02:56:46;;;;;;;;;;;;;;;22.03;26.38;97873.78;5041706;28;1126;-78
2023/03/04 02:59:13;;;;;;;;;;;;;;;22.13;26.33;97883.25;5041829;28;1967;-79
2023/03/04 03:01:38;;;;;;;;;;;;;;;21.83;26.68;97888.91;5041510;28;1355;-79
2023/03/04 03:04:04;;;;;;;;;;;;;;;21.72;26.73;97882.78;5041430;28;1651;-79
2023/03/04 03:06:30;;;;;;;;;;;;;;;21.63;26.88;97885.47;5058192;28;1143;-79
2023/03/04 03:08:55;;;;;;;;;;;;;;;21.59;26.86;97887.59;5041598;28;1165;-79
2023/03/04 03:11:21;;;;;;;;;;;;;;;22.01;26.41;97879.88;5041955;28;1126;-79
2023/03/04 03:13:46;;;;;;;;;;;;;;;22.22;26.37;97881.28;5057863;28;964;-79
2023/03/04 03:16:13;;;;;;;;;;;;;;;21.89;26.54;97882.72;5041521;28;1231;-79
2023/03/04 03:18:40;;;;;;;;;;;;;;;21.87;26.56;97880.34;5041141;28;1173;-79
2023/03/04 03:21:06;;;;;;;;;;;;;;;21.71;27.09;97884.03;5057651;28;1910;-79
2023/03/04 03:23:31;;;;;;;;;;;;;;;21.66;27.21;97884.59;5072116;28;1175;-79
2023/03/04 03:25:57;;;;;;;;;;;;;;;22.12;26.20;97890.91;5076612;28;979;-79
2023/03/04 03:28:26;;;;;;;;;;;;;;;22.18;26.39;97888.34;5076827;28;908;-79
2023/03/04 03:30:52;;;;;;;;;;;;;;;21.98;26.29;97886.47;5058736;28;1066;-79
2023/03/04 03:33:17;;;;;;;;;;;;;;;21.71;26.99;97889.69;5059176;28;1263;-79
2023/03/04 03:35:43;;;;;;;;;;;;;;;21.77;26.65;97885.06;5077357;28;1346;-79
2023/03/04 03:38:10;;;;;;;;;;;;;;;21.93;26.59;97883.41;5060872;28;1197;-79
2023/03/04 03:40:35;;;;;;;;;;;;;;;22.28;26.11;97881.56;5044042;28;2443;-79
2023/03/04 03:43:01;;;;;;;;;;;;;;;22.21;26.24;97882.56;5061038;28;947;-79
2023/03/04 03:45:27;;;;;;;;;;;;;;;21.85;26.60;97883.59;5077461;28;1051;-80
2023/03/04 03:47:52;;;;;;;;;;;;;;;21.65;27.00;97874.47;5060860;28;917;-79
2023/03/04 03:50:18;;;;;;;;;;;;;;;21.41;27.56;97887.31;5077300;28;1287;-79
2023/03/04 03:52:44;;;;;;;;;;;;;;;21.93;26.68;97883.41;5077315;28;930;-79
2023/03/04 03:55:09;;;;;;;;;;;;;;;22.07;26.73;97888.63;5060611;28;1296;-78
2023/03/04 03:57:35;;;;;;;;;;;;;;;21.89;26.52;97885.53;5094284;28;933;-79
2023/03/04 04:00:00;;;;;;;;;;;;;;;21.82;26.67;97890.16;5077012;28;1883;-79
2023/03/04 04:02:26;;;;;;;;;;;;;;;21.64;27.25;97889.88;5077087;28;992;-79
2023/03/04 04:04:51;;;;;;;;;;;;;;;21.98;26.78;97875.13;5093694;28;912;-79
2023/03/04 04:07:17;;;;;;;;;;;;;;;22.08;26.54;97888.19;5074351;28;1111;-79
2023/03/04 04:09:43;;;;;;;;;;;;;;;22.30;26.18;97891.19;5074898;28;912;-79
2023/03/04 04:12:08;;;;;;;;;;;;;;;21.72;26.72;97884.81;5075326;28;767;-79
2023/03/04 04:14:34;;;;;;;;;;;;;;;21.61;27.28;97887.97;5074705;28;930;-79
2023/03/04 04:16:59;;;;;;;;;;;;;;;21.56;27.01;97894.16;5057263;28;898;-79
2023/03/04 04:19:25;;;;;;;;;;;;;;;21.88;26.75;97892.44;5058025;28;1918;-79
2023/03/04 04:21:51;;;;;;;;;;;;;;;21.93;26.68;97894.72;5074825;28;1095;-78
2023/03/04 04:24:16;;;;;;;;;;;;;;;22.22;26.46;97895.47;5076687;28;1825;-79
2023/03/04 04:26:42;;;;;;;;;;;;;;;21.98;26.44;97897.00;5060257;28;1320;-79
2023/03/04 04:29:08;;;;;;;;;;;;;;;21.83;26.55;97897.41;5077041;28;976;-79
2023/03/04 04:31:33;;;;;;;;;;;;;;;21.82;26.61;97901.50;5096534;28;943;-79
2023/03/04 04:33:59;;;;;;;;;;;;;;;22.10;26.13;97893.38;5096883;28;938;-79
2023/03/04 04:36:25;;;;;;;;;;;;;;;21.97;26.58;97889.75;5072683;28;1099;-79
2023/03/04 04:38:51;;;;;;;;;;;;;;;21.98;26.43;97897.00;5077857;28;997;-79
2023/03/04 04:41:20;;;;;;;;;;;;;;;21.71;26.95;97892.53;5079730;28;1918;-79
2023/03/04 04:43:45;;;;;;;;;;;;;;;21.52;27.14;97890.63;5079902;28;992;-79
2023/03/04 04:46:11;;;;;;;;;;;;;;;21.79;26.95;97902.38;5079718;28;919;-79
2023/03/04 04:48:36;;;;;;;;;;;;;;;21.99;26.81;97915.59;5080038;28;1181;-78
2023/03/04 04:51:02;;;;;;;;;;;;;;;22.14;26.52;97910.31;5079835;28;1216;-79
2023/03/04 04:53:28;;;;;;;;;;;;;;;22.01;26.31;97913.88;5062826;28;935;-79
2023/03/04 04:55:53;;;;;;;;;;;;;;;21.97;26.82;97918.88;5032740;28;1084;-79
2023/03/04 04:58:19;;;;;;;;;;;;;;;21.79;26.55;97925.03;5023189;28;922;-79
2023/03/04 05:00:45;;;;;;;;;;;;;;;22.00;26.69;97928.50;5023000;28;1914;-79
2023/03/04 05:03:10;;;;;;;;;;;;;;;22.05;26.72;97930.78;5059366;28;1137;-79
2023/03/04 05:05:36;;;;;;;;;;;;;;;21.98;26.35;97933.84;5059819;28;1013;-79
2023/03/04 05:08:01;;;;;;;;;;;;;;;21.82;26.69;97935.50;5009849;28;1171;-79
2023/03/04 05:10:27;;;;;;;;;;;;;;;21.65;26.96;97935.97;5042997;28;1168;-79
2023/03/04 05:12:53;;;;;;;;;;;;;;;21.74;26.80;97939.75;5028408;28;1277;-78
2023/03/04 05:15:18;;;;;;;;;;;;;;;22.01;26.67;97941.41;5083012;28;1228;-79
2023/03/04 05:17:44;;;;;;;;;;;;;;;22.21;26.55;97944.09;5065958;28;977;-78
2023/03/04 05:20:10;;;;;;;;;;;;;;;22.18;26.32;97951.47;5083071;28;1914;-79
2023/03/04 05:22:35;;;;;;;;;;;;;;;22.33;26.05;97952.66;5081106;28;1021;-79
2023/03/04 05:25:01;;;;;;;;;;;;;;;21.99;26.44;97949.59;5102949;28;964;-79
2023/03/04 05:27:26;;;;;;;;;;;;;;;21.95;26.44;97948.88;5069721;28;1060;-79
2023/03/04 05:29:54;;;;;;;;;;;;;;;21.79;26.65;97959.03;5102945;28;996;-79
2023/03/04 05:32:20;;;;;;;;;;;;;;;22.21;26.22;97959.06;5062625;28;1413;-79
2023/03/04 05:34:45;;;;;;;;;;;;;;;22.12;26.65;97967.44;5047724;28;975;-79
2023/03/04 05:37:11;;;;;;;;;;;;;;;21.89;26.65;97959.19;5026311;28;1131;-78
2023/03/04 05:39:36;;;;;;;;;;;;;;;21.72;27.18;97953.56;5042636;28;1910;-79
2023/03/04 05:42:02;;;;;;;;;;;;;;;21.69;27.12;97971.44;5042533;28;1262;-79
2023/03/04 05:44:27;;;;;;;;;;;;;;;22.10;26.72;97967.06;5042514;28;1071;-79
2023/03/04 05:46:53;;;;;;;;;;;;;;;22.26;26.15;97964.19;5058974;28;942;-79
2023/03/04 05:49:19;;;;;;;;;;;;;;;21.86;26.50;97963.69;5058523;28;1018;-78
2023/03/04 05:51:44;;;;;;;;;;;;;;;21.75;26.83;97952.66;5039631;28;1280;-79
2023/03/04 05:54:10;;;;;;;;;;;;;;;21.74;27.06;97956.75;5055972;28;962;-79
2023/03/04 05:56:35;;;;;;;;;;;;;;;22.04;26.71;97951.88;5055918;28;956;-79
2023/03/04 05:59:01;;;;;;;;;;;;;;;22.16;26.31;97958.84;5023015;28;1913;-79
2023/03/04 06:01:27;;;;;;;;;;;;;;;22.10;26.44;97958.56;5039349;28;917;-79
2023/03/04 06:03:52;;;;;;;;;;;;;;;21.90;26.57;97958.72;5039258;28;1089;-78
2023/03/04 06:06:18;;;;;;;;;;;;;;;21.75;26.77;97958.34;5039279;28;1218;-79
2023/03/04 06:08:43;;;;;;;;;;;;;;;21.72;26.90;97953.56;5042755;28;1134;-79
2023/03/04 06:11:09;;;;;;;;;;;;;;;21.77;27.23;97961.53;5079456;28;956;-79
2023/03/04 06:13:34;;;;;;;;;;;;;;;22.12;26.56;97961.75;5062780;28;1094;-79
2023/03/04 06:16:00;;;;;;;;;;;;;;;22.08;26.33;97969.56;5059880;28;1094;-79
2023/03/04 06:18:26;;;;;;;;;;;;;;;21.70;27.06;97967.38;5022185;28;1141;-79
2023/03/04 06:20:54;;;;;;;;;;;;;;;21.80;26.76;97966.28;5055233;28;1910;-79
2023/03/04 06:23:20;;;;;;;;;;;;;;;21.95;26.89;97965.88;5038919;28;1102;-79
2023/03/04 06:25:46;;;;;;;;;;;;;;;22.28;26.44;97978.72;5055214;28;956;-78
2023/03/04 06:28:11;;;;;;;;;;;;;;;22.08;26.88;97969.56;5038723;28;1157;-79
2023/03/04 06:30:37;;;;;;;;;;;;;;;21.81;27.08;97962.22;5022569;28;1225;-79
2023/03/04 06:33:02;;;;;;;;;;;;;;;21.69;26.96;97970.66;5055321;28;970;-78
2023/03/04 06:35:28;;;;;;;;;;;;;;;21.76;27.00;97971.28;5039181;28;1154;-79
2023/03/04 06:37:53;;;;;;;;;;;;;;;22.03;26.66;97961.63;5054962;28;1135;-79
2023/03/04 06:40:19;;;;;;;;;;;;;;;22.19;26.38;97964.41;5055184;28;1985;-79
2023/03/04 06:42:45;;;;;;;;;;;;;;;22.03;26.64;97953.13;5071808;28;895;-79
2023/03/04 06:45:10;;;;;;;;;;;;;;;21.72;26.98;97953.56;5038749;28;1126;-79
2023/03/04 06:47:36;;;;;;;;;;;;;;;21.68;27.05;97960.59;5071875;28;893;-79
2023/03/04 06:50:02;;;;;;;;;;;;;;;21.91;26.99;97953.84;5053113;28;959;-79
2023/03/04 06:52:28;;;;;;;;;;;;;;;22.20;26.35;97948.97;5054985;28;1015;-79
2023/03/04 06:54:53;;;;;;;;;;;;;;;22.42;26.02;97942.66;5027233;28;1095;-79
2023/03/04 06:57:19;;;;;;;;;;;;;;;22.06;26.40;97938.03;5038698;28;906;-79
2023/03/04 06:59:44;;;;;;;;;;;;;;;21.92;26.86;97935.63;5021806;28;1946;-79
2023/03/04 07:02:11;;;;;;;;;;;;;;;21.79;27.13;97936.38;5054623;28;989;-79
2023/03/04 07:04:36;;;;;;;;;;;;;;;22.07;26.48;97928.28;5038175;28;1103;-79
2023/03/04 07:07:02;;;;;;;;;;;;;;;22.12;26.41;97929.81;5038060;28;1045;-79
2023/03/04 07:09:27;;;;;;;;;;;;;;;21.79;26.71;97930.72;5034456;28;1056;-79
2023/03/04 07:11:53;;;;;;;;;;;;;;;21.96;26.63;97927.81;5054523;28;1196;-78
2023/03/04 07:14:19;;;;;;;;;;;;;;;21.82;26.78;97927.00;5021847;28;1123;-78
2023/03/04 07:16:44;;;;;;;;;;;;;;;21.85;26.59;97920.41;5054767;28;929;-78
2023/03/04 07:19:10;;;;;;;;;;;;;;;22.11;26.52;97917.66;5054470;28;1988;-78
2023/03/04 07:21:36;;;;;;;;;;;;;;;21.96;26.69;97911.59;5054651;28;1250;-77
2023/03/04 07:24:02;;;;;;;;;;;;;;;21.96;26.80;97919.31;5067368;28;1343;-78
2023/03/04 07:26:27;;;;;;;;;;;;;;;21.88;26.98;97909.44;5021174;28;1123;-78
2023/03/04 07:28:53;;;;;;;;;;;;;;;21.70;27.01;97910.72;5037637;28;1008;-78
2023/03/04 07:31:22;;;;;;;;;;;;;;;21.55;27.10;97903.88;5037777;28;1166;-78
2023/03/04 07:33:48;;;;;;;;;;;;;;;21.91;27.08;97905.69;5021264;28;893;-78
2023/03/04 07:36:14;;;;;;;;;;;;;;;22.00;26.65;97908.69;5005052;28;1150;-78
2023/03/04 07:38:43;;;;;;;;;;;;;;;22.11;26.67;97906.34;5037609;28;968;-78
2023/03/04 07:41:09;;;;;;;;;;;;;;;21.82;27.03;97912.84;5037093;28;1975;-78
2023/03/04 07:43:35;;;;;;;;;;;;;;;21.61;26.99;97913.44;5009599;28;902;-78
2023/03/04 07:46:00;;;;;;;;;;;;;;;21.50;27.28;97912.91;5001567;28;1130;-78
2023/03/04 07:48:26;;;;;;;;;;;;;;;22.02;26.54;97914.66;5017887;28;928;-78
2023/03/04 07:51:12;;;;;;;;;;;;;;;21.94;26.58;97907.66;5017857;28;1058;-78
2023/03/04 07:53:38;;;;;;;;;;;;;;;21.91;26.58;97919.88;5033704;28;1084;-78
2023/03/04 07:56:04;;;;;;;;;;;;;;;21.75;26.80;97918.69;5017467;28;1036;-78
2023/03/04 07:58:30;;;;;;;;;;;;;;;21.55;27.04;97916.03;5001228;28;1189;-78
2023/03/04 08:00:55;;;;;;;;;;;;;;;21.56;27.41;97914.78;5017640;28;1979;-78
2023/03/04 08:03:21;;;;;;;;;;;;;;;21.87;26.53;97914.31;5030989;28;912;-79
2023/03/04 08:05:46;;;;;;;;;;;;;;;22.00;26.42;97917.16;5053818;28;967;-79
2023/03/04 08:08:12;;;;;;;;;;;;;;;21.97;26.69;97912.44;5036807;28;1080;-79
2023/03/04 08:10:38;;;;;;;;;;;;;;;21.54;27.20;97907.97;5021013;28;1147;-79
2023/03/04 08:13:06;;;;;;;;;;;;;;;21.36;27.11;97910.50;5036569;28;966;-79
2023/03/04 08:15:34;;;;;;;;;;;;;;;21.79;26.67;97908.06;5037021;28;1274;-79
2023/03/04 08:18:00;;;;;;;;;;;;;;;22.07;26.13;97905.63;5036918;28;1145;-78
2023/03/04 08:20:25;;;;;;;;;;;;;;;22.04;26.30;97912.19;5020378;28;1914;-79
2023/03/04 08:22:51;;;;;;;;;;;;;;;21.85;26.59;97917.59;5053823;28;961;-79
2023/03/04 08:25:16;;;;;;;;;;;;;;;21.63;26.78;97915.81;5036685;28;993;-79
2023/03/04 08:27:42;;;;;;;;;;;;;;;21.69;26.68;97908.34;5053293;28;1003;-77
2023/03/04 08:30:08;;;;;;;;;;;;;;;21.80;26.75;97909.63;5056113;28;1150;-78
2023/03/04 08:32:33;;;;;;;;;;;;;;;22.05;26.25;97908.13;5032807;28;947;-77
2023/03/04 08:35:01;;;;;;;;;;;;;;;21.94;26.47;97913.31;5033002;28;943;-78
2023/03/04 08:37:28;;;;;;;;;;;;;;;22.14;25.98;97911.13;5033114;28;964;-78
2023/03/04 08:39:53;;;;;;;;;;;;;;;21.85;26.57;97917.59;5016319;28;1910;-78
2023/03/04 08:42:19;;;;;;;;;;;;;;;21.76;26.62;97908.97;5016416;28;938;-78
2023/03/04 08:44:44;;;;;;;;;;;;;;;21.81;26.78;97905.59;5016363;28;1057;-78
2023/03/04 08:47:11;;;;;;;;;;;;;;;21.85;26.67;97905.47;5016161;28;1356;-78
2023/03/04 08:49:36;;;;;;;;;;;;;;;21.84;26.42;97904.66;5016427;28;1176;-77
2023/03/04 08:52:02;;;;;;;;;;;;;;;21.78;26.62;97900.00;5016758;28;978;-78
2023/03/04 08:54:27;;;;;;;;;;;;;;;21.59;26.71;97899.72;5032777;28;896;-78
2023/03/04 08:56:53;;;;;;;;;;;;;;;21.57;26.88;97890.88;4985092;28;1170;-78
2023/03/04 08:59:19;;;;;;;;;;;;;;;21.89;26.38;97889.16;4996934;28;1979;-77
2023/03/04 09:01:44;;;;;;;;;;;;;;;22.08;26.26;97901.56;4996618;28;1041;-78
2023/03/04 09:04:10;;;;;;;;;;;;;;;21.98;26.25;97897.00;4996470;28;981;-78
2023/03/04 09:06:35;;;;;;;;;;;;;;;21.75;26.67;97890.38;4994537;28;975;-78
2023/03/04 09:09:01;;;;;;;;;;;;;;;21.64;26.63;97898.38;5013967;28;1257;-77
2023/03/04 09:11:27;;;;;;;;;;;;;;;21.77;26.36;97892.75;5013568;28;980;-78
2023/03/04 09:13:52;;;;;;;;;;;;;;;22.04;26.36;97895.19;5012792;28;1035;-78
2023/03/04 09:16:18;;;;;;;;;;;;;;;22.18;26.15;97888.34;5013232;28;982;-78
2023/03/04 09:18:44;;;;;;;;;;;;;;;22.00;26.20;97883.97;5013019;28;957;-78
2023/03/04 09:21:09;;;;;;;;;;;;;;;21.66;26.63;97887.41;5029026;28;1906;-78
2023/03/04 09:23:35;;;;;;;;;;;;;;;21.64;26.89;97884.22;4996351;28;1168;-78
2023/03/04 09:26:01;;;;;;;;;;;;;;;21.58;26.83;97881.16;5029222;28;924;-77
2023/03/04 09:28:26;;;;;;;;;;;;;;;21.87;26.39;97885.22;5036485;28;1254;-78
2023/03/04 09:30:52;;;;;;;;;;;;;;;21.84;26.63;97867.06;5036188;28;950;-78
2023/03/04 09:33:17;;;;;;;;;;;;;;;21.97;26.25;97867.09;5019876;28;1127;-78
2023/03/04 09:35:43;;;;;;;;;;;;;;;21.76;26.52;97868.50;5036084;28;961;-78
2023/03/04 09:38:08;;;;;;;;;;;;;;;21.84;26.53;97870.69;5036111;28;1064;-78
2023/03/04 09:40:41;;;;;;;;;;;;;;;21.65;26.74;97863.16;5005480;28;1915;-78
2023/03/04 09:43:10;;;;;;;;;;;;;;;21.84;26.40;97862.19;4999951;28;1325;-78
2023/03/04 09:45:43;;;;;;;;;;;;;;;22.15;26.11;97858.84;4996490;28;1164;-78
2023/03/04 09:48:09;;;;;;;;;;;;;;;22.33;25.69;97847.75;5029127;28;1288;-78
2023/03/04 09:50:35;;;;;;;;;;;;;;;21.85;26.55;97846.78;5012883;28;1081;-78
2023/03/04 09:53:18;;;;;;;;;;;;;;;21.75;26.50;97847.88;5029713;28;1123;-78
2023/03/04 09:55:46;;;;;;;;;;;;;;;21.92;26.79;97842.16;5029372;28;1031;-78
2023/03/04 09:58:12;;;;;;;;;;;;;;;21.84;26.47;97842.34;5025947;28;1134;-78
2023/03/04 10:00:41;;;;;;;;;;;;;;;22.05;26.15;97845.78;4996081;28;1906;-78
2023/03/04 10:03:20;;;;;;;;;;;;;;;22.07;26.24;97844.09;5012573;28;940;-78
2023/03/04 10:05:50;;;;;;;;;;;;;;;21.72;26.34;97834.63;5012580;28;957;-78
2023/03/04 10:08:15;;;;;;;;;;;;;;;21.53;26.80;97838.44;5032186;28;1205;-79
2023/03/04 10:10:42;;;;;;;;;;;;;;;21.68;27.03;97833.94;5015280;28;1004;-79
2023/03/04 10:13:13;;;;;;;;;;;;;;;22.00;26.49;97837.84;5018686;28;1029;-79
2023/03/04 10:15:39;;;;;;;;;;;;;;;22.11;26.01;97832.66;5008413;28;1914;-79
2023/03/04 10:18:10;;;;;;;;;;;;;;;21.66;26.53;97824.28;5016928;28;1086;-79
2023/03/04 10:20:45;;;;;;;;;;;;;;;21.76;26.63;97823.19;5015619;28;1918;-79
2023/03/04 10:23:14;;;;;;;;;;;;;;;21.46;27.00;97816.78;5010435;28;902;-79
2023/03/04 10:25:40;;;;;;;;;;;;;;;21.77;26.71;97814.25;5035219;28;953;-79
2023/03/04 10:28:12;;;;;;;;;;;;;;;21.98;26.30;97818.47;5018872;28;930;-79
2023/03/04 10:30:55;;;;;;;;;;;;;;;22.13;25.99;97818.06;5034981;28;929;-79
2023/03/04 10:33:22;;;;;;;;;;;;;;;21.83;26.22;97812.44;5035114;28;908;-79
2023/03/04 10:36:00;;;;;;;;;;;;;;;21.64;26.50;97810.59;5034265;28;1023;-79
2023/03/04 10:38:28;;;;;;;;;;;;;;;21.58;26.65;97807.53;5035188;28;1061;-79
2023/03/04 10:40:53;;;;;;;;;;;;;;;21.63;26.77;97803.34;5031611;28;1914;-79
2023/03/04 10:43:19;;;;;;;;;;;;;;;22.10;26.31;97805.56;5015118;28;1155;-79
2023/03/04 10:45:45;;;;;;;;;;;;;;;22.36;25.69;97792.19;5014967;28;1039;-79
2023/03/04 10:48:18;;;;;;;;;;;;;;;21.87;26.25;97788.91;4998831;28;1048;-79
2023/03/04 10:50:43;;;;;;;;;;;;;;;21.61;26.81;97782.41;5014896;28;998;-79
2023/03/04 10:53:15;;;;;;;;;;;;;;;21.48;26.83;97779.53;5015020;28;1026;-79
2023/03/04 10:55:42;;;;;;;;;;;;;;;22.07;26.46;97769.63;5015001;28;1159;-79
2023/03/04 10:58:10;;;;;;;;;;;;;;;22.34;25.87;97766.34;5014903;28;948;-79
2023/03/04 11:00:36;;;;;;;;;;;;;;;22.44;25.58;97758.75;5015542;28;1883;-79
2023/03/04 11:03:20;;;;;;;;;;;;;;;21.83;26.40;97767.13;5014737;28;961;-79
2023/03/04 11:05:45;;;;;;;;;;;;;;;21.79;26.43;97760.78;5016175;28;916;-78
2023/03/04 11:08:18;;;;;;;;;;;;;;;21.71;26.67;97765.09;5017967;28;1193;-79
2023/03/04 11:10:43;;;;;;;;;;;;;;;22.08;26.21;97754.22;5018385;28;918;-79
2023/03/04 11:13:15;;;;;;;;;;;;;;;22.00;26.40;97741.53;5056825;28;915;-79
2023/03/04 11:15:57;;;;;;;;;;;;;;;22.04;26.15;97742.19;5089068;28;897;-79
2023/03/04 11:18:38;;;;;;;;;;;;;;;21.61;26.87;97737.13;5072280;28;1343;-79
2023/03/04 11:21:04;;;;;;;;;;;;;;;21.53;26.59;97733.69;5056513;28;1993;-78
2023/03/04 11:23:34;;;;;;;;;;;;;;;21.40;26.92;97732.88;5094099;28;929;-79
2023/03/04 11:26:04;;;;;;;;;;;;;;;21.71;26.58;97735.97;5077637;28;1107;-79
2023/03/04 11:28:35;;;;;;;;;;;;;;;21.94;26.32;97721.47;5061002;28;1016;-79
2023/03/04 11:31:02;;;;;;;;;;;;;;;22.04;26.28;97717.50;5077779;28;1065;-79
2023/03/04 11:33:28;;;;;;;;;;;;;;;21.81;26.40;97707.31;5060379;28;1208;-79
2023/03/04 11:35:57;;;;;;;;;;;;;;;21.72;26.64;97707.22;5077369;28;1124;-79
2023/03/04 11:38:32;;;;;;;;;;;;;;;21.50;26.91;97709.09;5060970;28;1053;-79
2023/03/04 11:40:59;;;;;;;;;;;;;;;21.73;27.01;97700.28;5060697;28;1984;-79
2023/03/04 11:43:34;;;;;;;;;;;;;;;21.76;26.72;97699.41;5077581;28;962;-79
2023/03/04 11:46:04;;;;;;;;;;;;;;;21.99;26.23;97688.94;5060771;28;1117;-79
2023/03/04 11:48:35;;;;;;;;;;;;;;;21.96;26.11;97695.50;5093752;28;965;-79
2023/03/04 11:51:19;;;;;;;;;;;;;;;21.64;26.71;97688.06;5093664;28;921;-78
2023/03/04 11:54:00;;;;;;;;;;;;;;;21.52;26.59;97695.31;5094011;28;953;-79
2023/03/04 11:56:32;;;;;;;;;;;;;;;21.78;26.73;97696.91;5093853;28;1163;-78
2023/03/04 11:59:15;;;;;;;;;;;;;;;21.93;26.54;97694.41;5057246;28;1115;-78
2023/03/04 12:01:44;;;;;;;;;;;;;;;22.08;26.14;97686.22;5040550;28;989;-79
2023/03/04 12:04:20;;;;;;;;;;;;;;;21.70;26.32;97683.41;5070031;28;952;-78
2023/03/04 12:06:55;;;;;;;;;;;;;;;21.61;26.62;97692.59;5070050;28;1087;-79
2023/03/04 12:09:20;;;;;;;;;;;;;;;21.56;26.92;97693.16;5036881;28;1221;-79
2023/03/04 12:11:55;;;;;;;;;;;;;;;21.75;26.60;97689.28;5053334;28;974;-79
2023/03/04 12:14:33;;;;;;;;;;;;;;;21.99;26.34;97686.13;5037138;28;1098;-79
2023/03/04 12:17:08;;;;;;;;;;;;;;;22.13;26.10;97688.50;5053435;28;1137;-79
2023/03/04 12:19:40;;;;;;;;;;;;;;;22.42;25.42;97687.50;5053561;28;1975;-79
2023/03/04 12:22:11;;;;;;;;;;;;;;;21.91;26.19;97694.03;5053442;28;959;-79
2023/03/04 12:24:40;;;;;;;;;;;;;;;21.85;26.03;97690.19;5036623;28;1191;-79
2023/03/04 12:27:24;;;;;;;;;;;;;;;21.76;26.29;97696.56;5053160;28;1119;-79
2023/03/04 12:29:53;;;;;;;;;;;;;;;21.89;26.22;97695.75;5053202;28;951;-79
2023/03/04 12:32:23;;;;;;;;;;;;;;;22.19;25.96;97692.34;5020205;28;1213;-79
2023/03/04 12:34:54;;;;;;;;;;;;;;;22.34;25.45;97701.94;5053011;28;963;-79
2023/03/04 12:37:26;;;;;;;;;;;;;;;21.66;26.55;97683.53;5068553;28;1162;-78
2023/03/04 12:39:51;;;;;;;;;;;;;;;21.45;26.88;97689.84;5054016;28;1967;-79
2023/03/04 12:42:21;;;;;;;;;;;;;;;21.45;26.76;97684.19;5055266;28;916;-79
2023/03/04 12:45:02;;;;;;;;;;;;;;;22.00;26.04;97682.03;5071122;28;993;-79
2023/03/04 12:47:31;;;;;;;;;;;;;;;22.05;26.15;97681.44;5055203;28;970;-78
2023/03/04 12:49:59;;;;;;;;;;;;;;;22.32;25.59;97678.91;5087892;28;938;-79
2023/03/04 12:52:41;;;;;;;;;;;;;;;21.78;26.15;97679.91;5054111;28;997;-79
2023/03/04 12:55:09;;;;;;;;;;;;;;;21.45;26.83;97672.88;5054128;28;1215;-79
2023/03/04 12:57:34;;;;;;;;;;;;;;;21.47;26.80;97678.88;5049615;28;1240;-79
2023/03/04 13:00:00;;;;;;;;;;;;;;;21.84;26.30;97672.41;5018844;28;1919;-79